CheckWX is a tool to help pilots better visualize weather data.  It is not intended as a substitute for an official pre-flight weather briefing.

04:50:08 UTC

SARE TAF
Resistencia International Airport
Resistencia, Argentina
TAF SARE 222300Z 2300/2324 14005KT CAVOK TX29/2318Z TN16/2309Z PROB30 2308/2311 5000 BR NSC

Mar-23@
00:00 UTC

Mar-23 @ 00:00 UTC

Mar-24@
00:00 UTC

Mar-24 @ 00:00 UTC

TAF SARE 222300Z 2300/2324 14005KT CAVOK TX29/2318Z TN16/2309Z
Wind
  • 140° at 5 KTS
Cloud Levels
  • No significant clouds

Mar-23@
08:00 UTC

Mar-23 @ 08:00 UTC

Mar-23@
11:00 UTC

Mar-23 @ 11:00 UTC

PROB30 2308/2311 5000 BR NSC

Probable - 30% Likelihood

Probable - 30% Likelihood during this time.

Conditions
Mist
Cloud Levels
  • No significant clouds